Silver Lucky — VRHT4 — position and weather

sailwx.info

Track history (hours):
 
Tides and Currents Weather Stations Pressure Air Temp Water Temp Dewpoint Dewpoint Depression Visibility Wind Speed Wind Dir Waves Ship Positions

Silver Lucky

Last reported at 2017-Dec-10 23:52 UTC. Time now 2017-Dec-18 12:27 UTC.
Position N 22°27' E 119°41'.

Length 120 m; draft 7.2 m.

Type: Cargo ship. MMSI: 477746300.

Date/timePositionNaut miles runAvg speedWind from/ knotsBaromVisibWave heightAir tempDewpointWater temp
2017-Dec-10 23:52N 22°27' E 119°41'511.0
2017-Dec-10 23:27N 22°31' E 119°44'511.0
2017-Dec-10 23:00N 22°34' E 119°48'710.5
2017-Dec-10 22:22N 22°41' E 119°49'4110.3
2017-Dec-10 18:22N 23°22' E 119°53'3 8.4
2017-Dec-10 17:59N 23°25' E 119°54'4 8.5
2017-Dec-10 17:28N 23°29' E 119°54'4 8.1
2017-Dec-10 17:00N 23°33' E 119°54'4 8.8
2017-Dec-10 16:30N 23°37' E 119°54'5210.0
2017-Dec-10 11:18N 24°17' E 120°31'0 1.5
2017-Dec-10 11:00N 24°17' E 120°32'0 0.0
2017-Dec-10 10:28N 24°17' E 120°32'0 0.0
2017-Dec-10 09:58N 24°17' E 120°32'56 3.6
2017-Dec-09 18:28N 25°07' E 120°60'510.4
2017-Dec-09 18:00N 25°11' E 121°03'510.5
2017-Dec-09 17:30N 25°13' E 121°08'510.6
2017-Dec-09 17:00N 25°15' E 121°14'510.5
2017-Dec-09 16:30N 25°18' E 121°19'610.6
2017-Dec-09 15:59N 25°20' E 121°24'511.0
2017-Dec-09 15:30N 25°23' E 121°30'5 9.4
2017-Dec-09 15:00N 25°22' E 121°35'611.8
2017-Dec-09 14:30N 25°18' E 121°40'611.0
2017-Dec-09 14:00N 25°15' E 121°44'4 8.5
2017-Dec-09 13:30N 25°11' E 121°45'2 4.4
2017-Dec-09 13:00N 25°08' E 121°45'0 0.1
2017-Dec-09 12:28N 25°08' E 121°44'0 0.0
2017-Dec-09 11:58N 25°08' E 121°44'0 0.0
2017-Dec-09 11:28N 25°08' E 121°44'0 0.0
2017-Dec-09 10:58N 25°08' E 121°44'0 0.0
2017-Dec-09 10:28N 25°08' E 121°44'0 0.0
2017-Dec-09 09:58N 25°08' E 121°44'0 0.0
2017-Dec-09 09:28N 25°08' E 121°44'0 0.0
2017-Dec-09 08:58N 25°08' E 121°44'0 0.0
2017-Dec-09 08:28N 25°08' E 121°44'0 0.0
2017-Dec-09 07:58N 25°08' E 121°44'0 0.0
2017-Dec-09 07:28N 25°08' E 121°44'0 0.0
2017-Dec-09 06:58N 25°08' E 121°44'0 0.0
2017-Dec-09 06:28N 25°08' E 121°44'0 0.0
2017-Dec-09 05:59N 25°08' E 121°44'0 0.0
2017-Dec-09 05:28N 25°08' E 121°44'0 0.0
2017-Dec-09 04:58N 25°08' E 121°44'0 0.0
2017-Dec-09 04:28N 25°08' E 121°44'0 0.0
2017-Dec-09 03:58N 25°08' E 121°44'0 0.0
2017-Dec-09 03:28N 25°08' E 121°44'0 0.0
2017-Dec-09 02:58N 25°08' E 121°44'0 0.0
2017-Dec-09 02:28N 25°08' E 121°44'0 0.0
2017-Dec-09 01:58N 25°08' E 121°44'0 0.0
2017-Dec-09 01:28N 25°08' E 121°44'0 0.0
2017-Dec-09 00:58N 25°08' E 121°44'0 0.0
2017-Dec-09 00:28N 25°08' E 121°44'0 0.0
2017-Dec-08 23:58N 25°08' E 121°44'0 0.0
2017-Dec-08 23:28N 25°08' E 121°44'0 0.0
2017-Dec-08 22:55N 25°08' E 121°44'0 0.0
2017-Dec-08 22:25N 25°08' E 121°44'0 0.0
2017-Dec-08 21:58N 25°08' E 121°44'0 0.0
2017-Dec-08 21:28N 25°08' E 121°44'0 0.0
2017-Dec-08 20:58N 25°08' E 121°44'0 0.0
2017-Dec-08 20:28N 25°08' E 121°44'0 0.0
2017-Dec-08 19:58N 25°08' E 121°44'0 0.0
2017-Dec-08 19:28N 25°08' E 121°44'0 0.0
2017-Dec-08 18:58N 25°08' E 121°44'0 0.0
2017-Dec-08 18:28N 25°08' E 121°44'0 0.0
2017-Dec-08 17:58N 25°08' E 121°44'0 0.0
2017-Dec-08 17:28N 25°08' E 121°44'0 0.0
2017-Dec-08 16:58N 25°08' E 121°44'0 0.0
2017-Dec-08 16:28N 25°08' E 121°44'0 0.0
2017-Dec-08 15:58N 25°08' E 121°44'0 0.0
2017-Dec-08 15:28N 25°08' E 121°44'0 0.0
2017-Dec-08 14:58N 25°08' E 121°44'0 0.7
2017-Dec-08 14:30N 25°08' E 121°45'3 6.3
2017-Dec-08 14:01N 25°11' E 121°45'4 9.0
2017-Dec-08 13:30N 25°16' E 121°46'5 9.4
2017-Dec-08 13:00N 25°20' E 121°48'5 9.8
2017-Dec-08 12:30N 25°25' E 121°50'5 9.7
2017-Dec-08 12:00N 25°29' E 121°53'510.1
2017-Dec-08 11:30N 25°34' E 121°55'  
2017-Dec-03 17:05N 34°14' E 138°18'410.1
2017-Dec-03 16:39N 34°16' E 138°23'4 9.6
2017-Dec-03 16:11N 34°18' E 138°28'2 9.3
2017-Dec-03 15:58N 34°18' E 138°30'21 8.8
2017-Dec-03 13:32N 34°27' E 138°54'0 8.1
2017-Dec-03 13:30N 34°27' E 138°54'4 7.7
2017-Dec-03 13:01N 34°28' E 138°58'4 7.5
2017-Dec-03 12:31N 34°30' E 139°03'4 7.5
2017-Dec-03 12:00N 34°31' E 139°07'3 7.1
2017-Dec-03 11:30N 34°33' E 139°11'4 7.0
2017-Dec-03 10:58N 34°34' E 139°15'4 7.4
2017-Dec-03 10:28N 34°36' E 139°19'4 8.7
2017-Dec-03 09:57N 34°37' E 139°24'4 8.4
2017-Dec-03 09:28N 34°38' E 139°29'7 7.6
2017-Dec-03 08:30N 34°41' E 139°38'4 8.4
2017-Dec-03 08:00N 34°43' E 139°42'17 8.1
2017-Dec-03 05:52N 34°52' E 139°60'3 9.2
2017-Dec-03 05:31N 34°54' E 140°03'5 9.5
2017-Dec-03 05:01N 34°57' E 140°08'5 9.5
2017-Dec-03 04:30N 34°59' E 140°13'5 9.9
2017-Dec-03 04:00N 35°02' E 140°18'  
Track history (hours):
 
Tides and Currents Weather Stations Pressure Air Temp Water Temp Dewpoint Dewpoint Depression Visibility Wind Speed Wind Dir Waves Ship Positions

Silver Lucky

Last reported at 2017-Dec-10 23:52 UTC. Time now 2017-Dec-18 12:27 UTC.
Position N 22°27' E 119°41'.

Length 120 m; draft 7.2 m.

Type: Cargo ship. MMSI: 477746300.

Date/timePositionNaut miles runAvg speedWind from/ knotsBaromVisibWave heightAir tempDewpointWater temp
2017-Dec-10 23:52N 22°27' E 119°41'511.0
2017-Dec-10 23:27N 22°31' E 119°44'511.0
2017-Dec-10 23:00N 22°34' E 119°48'710.5
2017-Dec-10 22:22N 22°41' E 119°49'4110.3
2017-Dec-10 18:22N 23°22' E 119°53'3 8.4
2017-Dec-10 17:59N 23°25' E 119°54'4 8.5
2017-Dec-10 17:28N 23°29' E 119°54'4 8.1
2017-Dec-10 17:00N 23°33' E 119°54'4 8.8
2017-Dec-10 16:30N 23°37' E 119°54'5210.0
2017-Dec-10 11:18N 24°17' E 120°31'0 1.5
2017-Dec-10 11:00N 24°17' E 120°32'0 0.0
2017-Dec-10 10:28N 24°17' E 120°32'0 0.0
2017-Dec-10 09:58N 24°17' E 120°32'56 3.6
2017-Dec-09 18:28N 25°07' E 120°60'510.4
2017-Dec-09 18:00N 25°11' E 121°03'510.5
2017-Dec-09 17:30N 25°13' E 121°08'510.6
2017-Dec-09 17:00N 25°15' E 121°14'510.5
2017-Dec-09 16:30N 25°18' E 121°19'610.6
2017-Dec-09 15:59N 25°20' E 121°24'511.0
2017-Dec-09 15:30N 25°23' E 121°30'5 9.4
2017-Dec-09 15:00N 25°22' E 121°35'611.8
2017-Dec-09 14:30N 25°18' E 121°40'611.0
2017-Dec-09 14:00N 25°15' E 121°44'4 8.5
2017-Dec-09 13:30N 25°11' E 121°45'2 4.4
2017-Dec-09 13:00N 25°08' E 121°45'0 0.1
2017-Dec-09 12:28N 25°08' E 121°44'0 0.0
2017-Dec-09 11:58N 25°08' E 121°44'0 0.0
2017-Dec-09 11:28N 25°08' E 121°44'0 0.0
2017-Dec-09 10:58N 25°08' E 121°44'0 0.0
2017-Dec-09 10:28N 25°08' E 121°44'0 0.0
2017-Dec-09 09:58N 25°08' E 121°44'0 0.0
2017-Dec-09 09:28N 25°08' E 121°44'0 0.0
2017-Dec-09 08:58N 25°08' E 121°44'0 0.0
2017-Dec-09 08:28N 25°08' E 121°44'0 0.0
2017-Dec-09 07:58N 25°08' E 121°44'0 0.0
2017-Dec-09 07:28N 25°08' E 121°44'0 0.0
2017-Dec-09 06:58N 25°08' E 121°44'0 0.0
2017-Dec-09 06:28N 25°08' E 121°44'0 0.0
2017-Dec-09 05:59N 25°08' E 121°44'0 0.0
2017-Dec-09 05:28N 25°08' E 121°44'0 0.0
2017-Dec-09 04:58N 25°08' E 121°44'0 0.0
2017-Dec-09 04:28N 25°08' E 121°44'0 0.0
2017-Dec-09 03:58N 25°08' E 121°44'0 0.0
2017-Dec-09 03:28N 25°08' E 121°44'0 0.0
2017-Dec-09 02:58N 25°08' E 121°44'0 0.0
2017-Dec-09 02:28N 25°08' E 121°44'0 0.0
2017-Dec-09 01:58N 25°08' E 121°44'0 0.0
2017-Dec-09 01:28N 25°08' E 121°44'0 0.0
2017-Dec-09 00:58N 25°08' E 121°44'0 0.0
2017-Dec-09 00:28N 25°08' E 121°44'0 0.0
2017-Dec-08 23:58N 25°08' E 121°44'0 0.0
2017-Dec-08 23:28N 25°08' E 121°44'0 0.0
2017-Dec-08 22:55N 25°08' E 121°44'0 0.0
2017-Dec-08 22:25N 25°08' E 121°44'0 0.0
2017-Dec-08 21:58N 25°08' E 121°44'0 0.0
2017-Dec-08 21:28N 25°08' E 121°44'0 0.0
2017-Dec-08 20:58N 25°08' E 121°44'0 0.0
2017-Dec-08 20:28N 25°08' E 121°44'0 0.0
2017-Dec-08 19:58N 25°08' E 121°44'0 0.0
2017-Dec-08 19:28N 25°08' E 121°44'0 0.0
2017-Dec-08 18:58N 25°08' E 121°44'0 0.0
2017-Dec-08 18:28N 25°08' E 121°44'0 0.0
2017-Dec-08 17:58N 25°08' E 121°44'0 0.0
2017-Dec-08 17:28N 25°08' E 121°44'0 0.0
2017-Dec-08 16:58N 25°08' E 121°44'0 0.0
2017-Dec-08 16:28N 25°08' E 121°44'0 0.0
2017-Dec-08 15:58N 25°08' E 121°44'0 0.0
2017-Dec-08 15:28N 25°08' E 121°44'0 0.0
2017-Dec-08 14:58N 25°08' E 121°44'0 0.7
2017-Dec-08 14:30N 25°08' E 121°45'3 6.3
2017-Dec-08 14:01N 25°11' E 121°45'4 9.0
2017-Dec-08 13:30N 25°16' E 121°46'5 9.4
2017-Dec-08 13:00N 25°20' E 121°48'5 9.8
2017-Dec-08 12:30N 25°25' E 121°50'5 9.7
2017-Dec-08 12:00N 25°29' E 121°53'510.1
2017-Dec-08 11:30N 25°34' E 121°55'  
2017-Dec-03 17:05N 34°14' E 138°18'410.1
2017-Dec-03 16:39N 34°16' E 138°23'4 9.6
2017-Dec-03 16:11N 34°18' E 138°28'2 9.3
2017-Dec-03 15:58N 34°18' E 138°30'21 8.8
2017-Dec-03 13:32N 34°27' E 138°54'0 8.1
2017-Dec-03 13:30N 34°27' E 138°54'4 7.7
2017-Dec-03 13:01N 34°28' E 138°58'4 7.5
2017-Dec-03 12:31N 34°30' E 139°03'4 7.5
2017-Dec-03 12:00N 34°31' E 139°07'3 7.1
2017-Dec-03 11:30N 34°33' E 139°11'4 7.0
2017-Dec-03 10:58N 34°34' E 139°15'4 7.4
2017-Dec-03 10:28N 34°36' E 139°19'4 8.7
2017-Dec-03 09:57N 34°37' E 139°24'4 8.4
2017-Dec-03 09:28N 34°38' E 139°29'7 7.6
2017-Dec-03 08:30N 34°41' E 139°38'4 8.4
2017-Dec-03 08:00N 34°43' E 139°42'17 8.1
2017-Dec-03 05:52N 34°52' E 139°60'3 9.2
2017-Dec-03 05:31N 34°54' E 140°03'5 9.5
2017-Dec-03 05:01N 34°57' E 140°08'5 9.5
2017-Dec-03 04:30N 34°59' E 140°13'5 9.9
2017-Dec-03 04:00N 35°02' E 140°18'  

Dump ship's entire track history